sensor_id;sensor_type;location;lat;lon;timestamp;P1;durP1;ratioP1;P2;durP2;ratioP2
26656;SDS011;14279;50.010;8.260;2024-03-08T00:00:34;21.33;;;14.97;;
26656;SDS011;14279;50.010;8.260;2024-03-08T00:03:00;22.50;;;16.20;;
26656;SDS011;14279;50.010;8.260;2024-03-08T00:05:28;23.20;;;15.60;;
26656;SDS011;14279;50.010;8.260;2024-03-08T00:07:53;29.20;;;15.07;;
26656;SDS011;14279;50.010;8.260;2024-03-08T00:10:18;22.70;;;15.77;;
26656;SDS011;14279;50.010;8.260;2024-03-08T00:12:45;24.10;;;15.50;;
26656;SDS011;14279;50.010;8.260;2024-03-08T00:15:15;22.97;;;17.20;;
26656;SDS011;14279;50.010;8.260;2024-03-08T00:17:41;24.67;;;16.10;;
26656;SDS011;14279;50.010;8.260;2024-03-08T00:20:07;23.47;;;14.47;;
26656;SDS011;14279;50.010;8.260;2024-03-08T00:22:35;23.37;;;15.57;;
26656;SDS011;14279;50.010;8.260;2024-03-08T00:25:02;25.80;;;17.30;;
26656;SDS011;14279;50.010;8.260;2024-03-08T00:27:28;25.47;;;15.90;;
26656;SDS011;14279;50.010;8.260;2024-03-08T00:29:57;24.93;;;15.90;;
26656;SDS011;14279;50.010;8.260;2024-03-08T00:32:22;24.93;;;16.97;;
26656;SDS011;14279;50.010;8.260;2024-03-08T00:34:49;28.40;;;17.00;;
26656;SDS011;14279;50.010;8.260;2024-03-08T00:37:17;26.23;;;15.33;;
26656;SDS011;14279;50.010;8.260;2024-03-08T00:39:42;28.60;;;16.00;;
26656;SDS011;14279;50.010;8.260;2024-03-08T00:42:07;22.60;;;15.87;;
26656;SDS011;14279;50.010;8.260;2024-03-08T00:44:33;24.87;;;16.07;;
26656;SDS011;14279;50.010;8.260;2024-03-08T00:46:58;25.43;;;15.77;;
26656;SDS011;14279;50.010;8.260;2024-03-08T00:49:24;23.70;;;16.40;;
26656;SDS011;14279;50.010;8.260;2024-03-08T00:51:49;23.80;;;16.17;;
26656;SDS011;14279;50.010;8.260;2024-03-08T00:54:14;21.63;;;14.03;;
26656;SDS011;14279;50.010;8.260;2024-03-08T00:56:42;22.43;;;15.80;;
26656;SDS011;14279;50.010;8.260;2024-03-08T00:59:11;24.37;;;16.87;;
26656;SDS011;14279;50.010;8.260;2024-03-08T01:01:36;24.60;;;17.73;;
26656;SDS011;14279;50.010;8.260;2024-03-08T01:04:01;25.43;;;16.17;;
26656;SDS011;14279;50.010;8.260;2024-03-08T01:06:26;26.17;;;17.00;;
26656;SDS011;14279;50.010;8.260;2024-03-08T01:08:52;24.90;;;16.70;;
26656;SDS011;14279;50.010;8.260;2024-03-08T01:11:17;25.37;;;16.57;;
26656;SDS011;14279;50.010;8.260;2024-03-08T01:13:43;29.27;;;16.90;;
26656;SDS011;14279;50.010;8.260;2024-03-08T01:16:12;24.50;;;16.40;;
26656;SDS011;14279;50.010;8.260;2024-03-08T01:18:37;24.33;;;15.13;;
26656;SDS011;14279;50.010;8.260;2024-03-08T01:21:03;24.60;;;16.80;;
26656;SDS011;14279;50.010;8.260;2024-03-08T01:23:28;23.50;;;15.70;;
26656;SDS011;14279;50.010;8.260;2024-03-08T01:25:54;29.70;;;17.20;;
26656;SDS011;14279;50.010;8.260;2024-03-08T01:28:23;23.73;;;16.20;;
26656;SDS011;14279;50.010;8.260;2024-03-08T01:30:49;20.50;;;15.00;;
26656;SDS011;14279;50.010;8.260;2024-03-08T01:33:20;26.00;;;15.97;;
26656;SDS011;14279;50.010;8.260;2024-03-08T01:35:47;27.20;;;16.70;;
26656;SDS011;14279;50.010;8.260;2024-03-08T01:38:12;27.47;;;16.70;;
26656;SDS011;14279;50.010;8.260;2024-03-08T01:40:38;26.37;;;17.70;;
26656;SDS011;14279;50.010;8.260;2024-03-08T01:45:43;22.63;;;16.00;;
26656;SDS011;14279;50.010;8.260;2024-03-08T01:48:08;24.30;;;16.07;;
26656;SDS011;14279;50.010;8.260;2024-03-08T01:50:33;23.43;;;17.47;;
26656;SDS011;14279;50.010;8.260;2024-03-08T01:52:59;25.90;;;16.93;;
26656;SDS011;14279;50.010;8.260;2024-03-08T01:55:25;25.47;;;18.13;;
26656;SDS011;14279;50.010;8.260;2024-03-08T01:57:50;23.60;;;16.63;;
26656;SDS011;14279;50.010;8.260;2024-03-08T02:00:16;26.33;;;16.77;;
26656;SDS011;14279;50.010;8.260;2024-03-08T02:02:44;23.37;;;16.90;;
26656;SDS011;14279;50.010;8.260;2024-03-08T02:05:11;26.33;;;17.60;;
26656;SDS011;14279;50.010;8.260;2024-03-08T02:07:40;25.93;;;17.10;;
26656;SDS011;14279;50.010;8.260;2024-03-08T02:10:08;27.60;;;17.23;;
26656;SDS011;14279;50.010;8.260;2024-03-08T02:12:34;27.77;;;17.80;;
26656;SDS011;14279;50.010;8.260;2024-03-08T02:14:59;27.60;;;18.40;;
26656;SDS011;14279;50.010;8.260;2024-03-08T02:17:25;26.77;;;18.13;;
26656;SDS011;14279;50.010;8.260;2024-03-08T02:19:50;30.70;;;17.37;;
26656;SDS011;14279;50.010;8.260;2024-03-08T02:22:15;25.17;;;17.50;;
26656;SDS011;14279;50.010;8.260;2024-03-08T02:24:41;30.90;;;18.77;;
26656;SDS011;14279;50.010;8.260;2024-03-08T02:27:06;27.40;;;16.77;;
26656;SDS011;14279;50.010;8.260;2024-03-08T02:29:31;28.23;;;18.30;;
26656;SDS011;14279;50.010;8.260;2024-03-08T02:31:59;30.57;;;17.10;;
26656;SDS011;14279;50.010;8.260;2024-03-08T02:34:24;29.50;;;18.47;;
26656;SDS011;14279;50.010;8.260;2024-03-08T02:36:50;27.63;;;17.93;;
26656;SDS011;14279;50.010;8.260;2024-03-08T02:39:15;24.77;;;16.80;;
26656;SDS011;14279;50.010;8.260;2024-03-08T02:41:41;28.80;;;18.00;;
26656;SDS011;14279;50.010;8.260;2024-03-08T02:44:07;26.57;;;18.40;;
26656;SDS011;14279;50.010;8.260;2024-03-08T02:46:32;30.80;;;17.80;;
26656;SDS011;14279;50.010;8.260;2024-03-08T02:48:57;26.47;;;18.50;;
26656;SDS011;14279;50.010;8.260;2024-03-08T02:51:23;29.60;;;18.93;;
26656;SDS011;14279;50.010;8.260;2024-03-08T02:53:48;27.10;;;18.37;;
26656;SDS011;14279;50.010;8.260;2024-03-08T02:56:16;26.07;;;17.10;;
26656;SDS011;14279;50.010;8.260;2024-03-08T02:58:42;25.00;;;17.57;;
26656;SDS011;14279;50.010;8.260;2024-03-08T03:01:07;24.93;;;17.37;;
26656;SDS011;14279;50.010;8.260;2024-03-08T03:03:33;27.63;;;18.23;;
26656;SDS011;14279;50.010;8.260;2024-03-08T03:05:58;29.63;;;18.40;;
26656;SDS011;14279;50.010;8.260;2024-03-08T03:08:23;32.57;;;18.50;;
26656;SDS011;14279;50.010;8.260;2024-03-08T03:10:49;31.27;;;19.07;;
26656;SDS011;14279;50.010;8.260;2024-03-08T03:13:14;30.17;;;18.27;;
26656;SDS011;14279;50.010;8.260;2024-03-08T03:15:39;25.67;;;17.50;;
26656;SDS011;14279;50.010;8.260;2024-03-08T03:18:08;29.90;;;19.20;;
26656;SDS011;14279;50.010;8.260;2024-03-08T03:20:33;34.33;;;19.47;;
26656;SDS011;14279;50.010;8.260;2024-03-08T03:23:05;29.13;;;18.50;;
26656;SDS011;14279;50.010;8.260;2024-03-08T03:25:32;29.87;;;18.33;;
26656;SDS011;14279;50.010;8.260;2024-03-08T03:28:00;26.60;;;17.77;;
26656;SDS011;14279;50.010;8.260;2024-03-08T03:30:25;30.60;;;17.00;;
26656;SDS011;14279;50.010;8.260;2024-03-08T03:32:58;27.20;;;16.80;;
26656;SDS011;14279;50.010;8.260;2024-03-08T03:35:25;24.80;;;17.20;;
26656;SDS011;14279;50.010;8.260;2024-03-08T03:37:50;29.80;;;19.37;;
26656;SDS011;14279;50.010;8.260;2024-03-08T03:40:27;30.00;;;18.07;;
26656;SDS011;14279;50.010;8.260;2024-03-08T03:42:53;25.20;;;17.07;;
26656;SDS011;14279;50.010;8.260;2024-03-08T03:45:18;31.03;;;18.50;;
26656;SDS011;14279;50.010;8.260;2024-03-08T03:47:45;30.07;;;17.77;;
26656;SDS011;14279;50.010;8.260;2024-03-08T03:50:10;33.97;;;18.57;;
26656;SDS011;14279;50.010;8.260;2024-03-08T03:52:35;24.87;;;18.60;;
26656;SDS011;14279;50.010;8.260;2024-03-08T03:55:01;29.03;;;19.07;;
26656;SDS011;14279;50.010;8.260;2024-03-08T03:57:26;30.17;;;19.50;;
26656;SDS011;14279;50.010;8.260;2024-03-08T03:59:51;30.80;;;19.77;;
26656;SDS011;14279;50.010;8.260;2024-03-08T04:02:17;24.73;;;18.70;;
26656;SDS011;14279;50.010;8.260;2024-03-08T04:04:42;31.43;;;19.13;;
26656;SDS011;14279;50.010;8.260;2024-03-08T04:07:09;27.77;;;19.10;;
26656;SDS011;14279;50.010;8.260;2024-03-08T04:09:35;37.50;;;19.80;;
26656;SDS011;14279;50.010;8.260;2024-03-08T04:12:00;27.17;;;19.00;;
26656;SDS011;14279;50.010;8.260;2024-03-08T04:14:26;27.43;;;17.47;;
26656;SDS011;14279;50.010;8.260;2024-03-08T04:16:51;29.33;;;20.40;;
26656;SDS011;14279;50.010;8.260;2024-03-08T04:19:17;30.40;;;18.67;;
26656;SDS011;14279;50.010;8.260;2024-03-08T04:21:44;31.20;;;19.00;;
26656;SDS011;14279;50.010;8.260;2024-03-08T04:24:09;30.27;;;19.10;;
26656;SDS011;14279;50.010;8.260;2024-03-08T04:26:35;30.60;;;21.07;;
26656;SDS011;14279;50.010;8.260;2024-03-08T04:29:00;29.20;;;20.40;;
26656;SDS011;14279;50.010;8.260;2024-03-08T04:31:26;31.30;;;20.40;;
26656;SDS011;14279;50.010;8.260;2024-03-08T04:33:51;28.27;;;19.47;;
26656;SDS011;14279;50.010;8.260;2024-03-08T04:36:17;28.30;;;20.03;;
26656;SDS011;14279;50.010;8.260;2024-03-08T04:38:42;26.40;;;19.43;;
26656;SDS011;14279;50.010;8.260;2024-03-08T04:41:07;28.20;;;19.80;;
26656;SDS011;14279;50.010;8.260;2024-03-08T04:43:33;28.00;;;20.10;;
26656;SDS011;14279;50.010;8.260;2024-03-08T04:45:59;28.40;;;20.00;;
26656;SDS011;14279;50.010;8.260;2024-03-08T04:48:24;30.03;;;19.43;;
26656;SDS011;14279;50.010;8.260;2024-03-08T04:50:51;31.90;;;20.27;;
26656;SDS011;14279;50.010;8.260;2024-03-08T04:53:18;28.87;;;19.90;;
26656;SDS011;14279;50.010;8.260;2024-03-08T04:55:43;30.90;;;20.50;;
26656;SDS011;14279;50.010;8.260;2024-03-08T04:58:09;29.10;;;20.10;;
26656;SDS011;14279;50.010;8.260;2024-03-08T05:00:34;32.03;;;20.20;;
26656;SDS011;14279;50.010;8.260;2024-03-08T05:03:00;33.07;;;20.97;;
26656;SDS011;14279;50.010;8.260;2024-03-08T05:05:25;35.73;;;21.40;;
26656;SDS011;14279;50.010;8.260;2024-03-08T05:07:53;32.23;;;20.67;;
26656;SDS011;14279;50.010;8.260;2024-03-08T05:10:18;34.70;;;20.63;;
26656;SDS011;14279;50.010;8.260;2024-03-08T05:12:44;30.43;;;20.30;;
26656;SDS011;14279;50.010;8.260;2024-03-08T05:15:09;30.80;;;20.33;;
26656;SDS011;14279;50.010;8.260;2024-03-08T05:17:35;33.87;;;22.33;;
26656;SDS011;14279;50.010;8.260;2024-03-08T05:20:00;35.30;;;22.20;;
26656;SDS011;14279;50.010;8.260;2024-03-08T05:22:25;32.30;;;21.77;;
26656;SDS011;14279;50.010;8.260;2024-03-08T05:24:51;34.93;;;22.37;;
26656;SDS011;14279;50.010;8.260;2024-03-08T05:27:16;30.93;;;21.70;;
26656;SDS011;14279;50.010;8.260;2024-03-08T05:29:41;36.87;;;21.70;;
26656;SDS011;14279;50.010;8.260;2024-03-08T05:32:07;34.13;;;21.70;;
26656;SDS011;14279;50.010;8.260;2024-03-08T05:34:32;34.60;;;20.60;;
26656;SDS011;14279;50.010;8.260;2024-03-08T05:36:57;30.17;;;20.63;;
26656;SDS011;14279;50.010;8.260;2024-03-08T05:39:23;31.93;;;21.60;;
26656;SDS011;14279;50.010;8.260;2024-03-08T05:41:49;35.13;;;22.20;;
26656;SDS011;14279;50.010;8.260;2024-03-08T05:44:15;31.60;;;21.03;;
26656;SDS011;14279;50.010;8.260;2024-03-08T05:46:43;36.50;;;21.40;;
26656;SDS011;14279;50.010;8.260;2024-03-08T05:49:09;35.93;;;22.63;;
26656;SDS011;14279;50.010;8.260;2024-03-08T05:51:35;30.67;;;20.77;;
26656;SDS011;14279;50.010;8.260;2024-03-08T05:54:02;34.70;;;22.03;;
26656;SDS011;14279;50.010;8.260;2024-03-08T05:56:28;36.50;;;22.80;;
26656;SDS011;14279;50.010;8.260;2024-03-08T05:58:54;34.70;;;22.40;;
26656;SDS011;14279;50.010;8.260;2024-03-08T06:01:19;31.37;;;21.73;;
26656;SDS011;14279;50.010;8.260;2024-03-08T06:03:44;32.57;;;21.47;;
26656;SDS011;14279;50.010;8.260;2024-03-08T06:06:13;33.60;;;21.43;;
26656;SDS011;14279;50.010;8.260;2024-03-08T06:08:38;33.97;;;22.27;;
26656;SDS011;14279;50.010;8.260;2024-03-08T06:11:04;36.53;;;22.43;;
26656;SDS011;14279;50.010;8.260;2024-03-08T06:13:31;31.23;;;21.87;;
26656;SDS011;14279;50.010;8.260;2024-03-08T06:15:59;34.00;;;22.30;;
26656;SDS011;14279;50.010;8.260;2024-03-08T06:18:25;35.00;;;23.50;;
26656;SDS011;14279;50.010;8.260;2024-03-08T06:20:51;33.13;;;22.07;;
26656;SDS011;14279;50.010;8.260;2024-03-08T06:23:16;32.23;;;21.57;;
26656;SDS011;14279;50.010;8.260;2024-03-08T06:25:43;41.50;;;24.80;;
26656;SDS011;14279;50.010;8.260;2024-03-08T06:28:09;36.47;;;23.70;;
26656;SDS011;14279;50.010;8.260;2024-03-08T06:30:34;35.73;;;21.57;;
26656;SDS011;14279;50.010;8.260;2024-03-08T06:32:59;34.70;;;23.40;;
26656;SDS011;14279;50.010;8.260;2024-03-08T06:35:25;37.40;;;22.20;;
26656;SDS011;14279;50.010;8.260;2024-03-08T06:37:50;33.90;;;21.33;;
26656;SDS011;14279;50.010;8.260;2024-03-08T06:40:15;42.50;;;22.90;;
26656;SDS011;14279;50.010;8.260;2024-03-08T06:42:41;33.37;;;21.27;;
26656;SDS011;14279;50.010;8.260;2024-03-08T06:45:06;33.80;;;22.57;;
26656;SDS011;14279;50.010;8.260;2024-03-08T06:47:34;35.33;;;24.03;;
26656;SDS011;14279;50.010;8.260;2024-03-08T06:49:59;32.57;;;22.93;;
26656;SDS011;14279;50.010;8.260;2024-03-08T06:52:24;35.63;;;21.40;;
26656;SDS011;14279;50.010;8.260;2024-03-08T06:54:50;27.50;;;20.17;;
26656;SDS011;14279;50.010;8.260;2024-03-08T06:57:17;33.00;;;22.00;;
26656;SDS011;14279;50.010;8.260;2024-03-08T06:59:42;31.50;;;19.93;;
26656;SDS011;14279;50.010;8.260;2024-03-08T07:02:07;37.70;;;22.17;;
26656;SDS011;14279;50.010;8.260;2024-03-08T07:04:36;29.47;;;20.57;;
26656;SDS011;14279;50.010;8.260;2024-03-08T07:07:06;35.83;;;21.20;;
26656;SDS011;14279;50.010;8.260;2024-03-08T07:09:34;33.93;;;22.10;;
26656;SDS011;14279;50.010;8.260;2024-03-08T07:12:01;30.43;;;21.40;;
26656;SDS011;14279;50.010;8.260;2024-03-08T07:14:26;31.60;;;21.73;;
26656;SDS011;14279;50.010;8.260;2024-03-08T07:16:52;38.17;;;21.50;;
26656;SDS011;14279;50.010;8.260;2024-03-08T07:19:17;31.00;;;21.20;;
26656;SDS011;14279;50.010;8.260;2024-03-08T07:21:44;33.97;;;21.63;;
26656;SDS011;14279;50.010;8.260;2024-03-08T07:24:10;40.53;;;22.50;;
26656;SDS011;14279;50.010;8.260;2024-03-08T07:26:53;33.10;;;22.00;;
26656;SDS011;14279;50.010;8.260;2024-03-08T07:29:20;33.97;;;22.13;;
26656;SDS011;14279;50.010;8.260;2024-03-08T07:31:46;32.90;;;22.10;;
26656;SDS011;14279;50.010;8.260;2024-03-08T07:34:30;32.53;;;20.73;;
26656;SDS011;14279;50.010;8.260;2024-03-08T07:36:57;35.07;;;21.40;;
26656;SDS011;14279;50.010;8.260;2024-03-08T07:39:22;32.30;;;22.10;;
26656;SDS011;14279;50.010;8.260;2024-03-08T07:41:48;28.73;;;20.10;;
26656;SDS011;14279;50.010;8.260;2024-03-08T07:44:14;35.47;;;22.53;;
26656;SDS011;14279;50.010;8.260;2024-03-08T07:46:39;31.07;;;20.80;;
26656;SDS011;14279;50.010;8.260;2024-03-08T07:49:06;31.40;;;21.73;;
26656;SDS011;14279;50.010;8.260;2024-03-08T07:51:31;32.90;;;21.63;;
26656;SDS011;14279;50.010;8.260;2024-03-08T07:53:56;31.20;;;21.40;;
26656;SDS011;14279;50.010;8.260;2024-03-08T07:56:22;41.33;;;22.57;;
26656;SDS011;14279;50.010;8.260;2024-03-08T07:58:47;28.73;;;20.33;;
26656;SDS011;14279;50.010;8.260;2024-03-08T08:01:19;32.80;;;21.00;;
26656;SDS011;14279;50.010;8.260;2024-03-08T08:03:45;34.93;;;22.30;;
26656;SDS011;14279;50.010;8.260;2024-03-08T08:06:10;60.73;;;23.17;;
26656;SDS011;14279;50.010;8.260;2024-03-08T08:08:43;35.13;;;21.47;;
26656;SDS011;14279;50.010;8.260;2024-03-08T08:11:09;33.40;;;20.50;;
26656;SDS011;14279;50.010;8.260;2024-03-08T08:13:36;32.10;;;21.27;;
26656;SDS011;14279;50.010;8.260;2024-03-08T08:16:02;30.77;;;21.70;;
26656;SDS011;14279;50.010;8.260;2024-03-08T08:18:29;33.47;;;23.40;;
26656;SDS011;14279;50.010;8.260;2024-03-08T08:20:55;34.30;;;22.10;;
26656;SDS011;14279;50.010;8.260;2024-03-08T08:23:21;33.83;;;21.83;;
26656;SDS011;14279;50.010;8.260;2024-03-08T08:25:46;32.87;;;21.20;;
26656;SDS011;14279;50.010;8.260;2024-03-08T08:28:14;32.17;;;20.07;;
26656;SDS011;14279;50.010;8.260;2024-03-08T08:30:42;30.37;;;20.47;;
26656;SDS011;14279;50.010;8.260;2024-03-08T08:33:10;29.20;;;20.23;;
26656;SDS011;14279;50.010;8.260;2024-03-08T08:35:36;31.30;;;18.87;;
26656;SDS011;14279;50.010;8.260;2024-03-08T08:38:03;34.73;;;20.70;;
26656;SDS011;14279;50.010;8.260;2024-03-08T08:40:28;31.20;;;18.87;;
26656;SDS011;14279;50.010;8.260;2024-03-08T08:42:55;32.07;;;19.57;;
26656;SDS011;14279;50.010;8.260;2024-03-08T08:45:22;33.83;;;19.33;;
26656;SDS011;14279;50.010;8.260;2024-03-08T08:47:48;30.03;;;19.53;;
26656;SDS011;14279;50.010;8.260;2024-03-08T08:50:14;32.10;;;18.67;;
26656;SDS011;14279;50.010;8.260;2024-03-08T08:52:41;33.47;;;18.70;;
26656;SDS011;14279;50.010;8.260;2024-03-08T08:55:08;31.63;;;19.40;;
26656;SDS011;14279;50.010;8.260;2024-03-08T08:57:34;28.80;;;18.30;;
26656;SDS011;14279;50.010;8.260;2024-03-08T09:00:00;27.53;;;18.47;;
26656;SDS011;14279;50.010;8.260;2024-03-08T09:02:26;27.30;;;17.90;;
26656;SDS011;14279;50.010;8.260;2024-03-08T09:04:51;29.00;;;19.20;;
26656;SDS011;14279;50.010;8.260;2024-03-08T09:07:26;31.00;;;18.80;;
26656;SDS011;14279;50.010;8.260;2024-03-08T09:10:10;26.63;;;17.73;;
26656;SDS011;14279;50.010;8.260;2024-03-08T09:12:40;30.93;;;18.53;;
26656;SDS011;14279;50.010;8.260;2024-03-08T09:15:06;30.87;;;19.40;;
26656;SDS011;14279;50.010;8.260;2024-03-08T09:17:35;30.17;;;19.10;;
26656;SDS011;14279;50.010;8.260;2024-03-08T09:20:01;31.17;;;19.37;;
26656;SDS011;14279;50.010;8.260;2024-03-08T09:22:28;28.53;;;17.60;;
26656;SDS011;14279;50.010;8.260;2024-03-08T09:24:53;26.73;;;19.00;;
26656;SDS011;14279;50.010;8.260;2024-03-08T09:27:18;29.33;;;18.17;;
26656;SDS011;14279;50.010;8.260;2024-03-08T09:29:44;27.20;;;17.90;;
26656;SDS011;14279;50.010;8.260;2024-03-08T09:32:09;28.87;;;18.20;;
26656;SDS011;14279;50.010;8.260;2024-03-08T09:34:36;28.70;;;18.37;;
26656;SDS011;14279;50.010;8.260;2024-03-08T09:37:02;27.23;;;17.97;;
26656;SDS011;14279;50.010;8.260;2024-03-08T09:39:29;24.53;;;17.50;;
26656;SDS011;14279;50.010;8.260;2024-03-08T09:41:54;26.47;;;17.20;;
26656;SDS011;14279;50.010;8.260;2024-03-08T09:44:20;32.77;;;17.83;;
26656;SDS011;14279;50.010;8.260;2024-03-08T09:46:46;29.43;;;16.10;;
26656;SDS011;14279;50.010;8.260;2024-03-08T09:49:16;26.90;;;16.57;;
26656;SDS011;14279;50.010;8.260;2024-03-08T09:51:41;31.87;;;18.93;;
26656;SDS011;14279;50.010;8.260;2024-03-08T09:54:07;34.60;;;18.37;;
26656;SDS011;14279;50.010;8.260;2024-03-08T09:56:33;24.60;;;16.00;;
26656;SDS011;14279;50.010;8.260;2024-03-08T09:59:00;28.03;;;17.20;;
26656;SDS011;14279;50.010;8.260;2024-03-08T10:01:48;26.73;;;15.87;;
26656;SDS011;14279;50.010;8.260;2024-03-08T10:04:13;25.60;;;16.47;;
26656;SDS011;14279;50.010;8.260;2024-03-08T10:06:42;24.27;;;15.73;;
26656;SDS011;14279;50.010;8.260;2024-03-08T10:09:08;27.63;;;16.93;;
26656;SDS011;14279;50.010;8.260;2024-03-08T10:11:35;26.60;;;16.17;;
26656;SDS011;14279;50.010;8.260;2024-03-08T10:14:00;20.77;;;14.57;;
26656;SDS011;14279;50.010;8.260;2024-03-08T10:16:29;26.87;;;16.33;;
26656;SDS011;14279;50.010;8.260;2024-03-08T10:18:56;23.50;;;15.50;;
26656;SDS011;14279;50.010;8.260;2024-03-08T10:21:22;25.20;;;16.50;;
26656;SDS011;14279;50.010;8.260;2024-03-08T10:23:47;21.27;;;13.73;;
26656;SDS011;14279;50.010;8.260;2024-03-08T10:26:14;22.67;;;15.30;;
26656;SDS011;14279;50.010;8.260;2024-03-08T10:28:44;20.47;;;14.10;;
26656;SDS011;14279;50.010;8.260;2024-03-08T10:31:12;18.83;;;13.50;;
26656;SDS011;14279;50.010;8.260;2024-03-08T10:33:38;20.60;;;13.53;;
26656;SDS011;14279;50.010;8.260;2024-03-08T10:36:05;20.50;;;14.80;;
26656;SDS011;14279;50.010;8.260;2024-03-08T10:38:32;21.83;;;12.67;;
26656;SDS011;14279;50.010;8.260;2024-03-08T10:41:07;18.67;;;12.73;;
26656;SDS011;14279;50.010;8.260;2024-03-08T10:48:55;18.73;;;11.93;;
26656;SDS011;14279;50.010;8.260;2024-03-08T10:51:27;18.70;;;13.10;;
26656;SDS011;14279;50.010;8.260;2024-03-08T10:53:54;21.43;;;13.20;;
26656;SDS011;14279;50.010;8.260;2024-03-08T10:56:22;18.40;;;12.90;;
26656;SDS011;14279;50.010;8.260;2024-03-08T10:58:47;18.27;;;12.03;;
26656;SDS011;14279;50.010;8.260;2024-03-08T11:01:14;23.70;;;14.03;;
26656;SDS011;14279;50.010;8.260;2024-03-08T11:06:05;16.50;;;12.50;;
26656;SDS011;14279;50.010;8.260;2024-03-08T11:08:33;39.83;;;13.33;;
26656;SDS011;14279;50.010;8.260;2024-03-08T11:10:58;19.87;;;13.80;;
26656;SDS011;14279;50.010;8.260;2024-03-08T11:13:37;20.40;;;12.77;;
26656;SDS011;14279;50.010;8.260;2024-03-08T11:16:11;23.40;;;13.80;;
26656;SDS011;14279;50.010;8.260;2024-03-08T11:18:39;19.77;;;13.53;;
26656;SDS011;14279;50.010;8.260;2024-03-08T11:21:06;21.00;;;13.40;;
26656;SDS011;14279;50.010;8.260;2024-03-08T11:23:37;19.47;;;12.07;;
26656;SDS011;14279;50.010;8.260;2024-03-08T11:26:02;19.10;;;12.77;;
26656;SDS011;14279;50.010;8.260;2024-03-08T11:28:32;19.23;;;12.60;;
26656;SDS011;14279;50.010;8.260;2024-03-08T11:33:26;20.83;;;12.77;;
26656;SDS011;14279;50.010;8.260;2024-03-08T11:38:44;19.60;;;12.67;;
26656;SDS011;14279;50.010;8.260;2024-03-08T11:41:13;20.70;;;12.93;;
26656;SDS011;14279;50.010;8.260;2024-03-08T11:43:40;20.10;;;13.50;;
26656;SDS011;14279;50.010;8.260;2024-03-08T11:46:10;21.67;;;14.43;;
26656;SDS011;14279;50.010;8.260;2024-03-08T11:48:37;19.63;;;13.13;;
26656;SDS011;14279;50.010;8.260;2024-03-08T11:51:12;20.43;;;13.50;;
26656;SDS011;14279;50.010;8.260;2024-03-08T11:53:39;19.80;;;13.13;;
26656;SDS011;14279;50.010;8.260;2024-03-08T11:56:09;16.30;;;11.97;;
26656;SDS011;14279;50.010;8.260;2024-03-08T11:58:36;18.47;;;12.23;;
26656;SDS011;14279;50.010;8.260;2024-03-08T12:01:03;17.23;;;12.40;;
26656;SDS011;14279;50.010;8.260;2024-03-08T12:03:30;21.00;;;13.27;;
26656;SDS011;14279;50.010;8.260;2024-03-08T12:06:10;18.83;;;12.47;;
26656;SDS011;14279;50.010;8.260;2024-03-08T12:08:45;17.67;;;12.83;;
26656;SDS011;14279;50.010;8.260;2024-03-08T12:11:53;18.97;;;13.60;;
26656;SDS011;14279;50.010;8.260;2024-03-08T12:14:18;23.30;;;13.90;;
26656;SDS011;14279;50.010;8.260;2024-03-08T12:16:44;18.30;;;13.40;;
26656;SDS011;14279;50.010;8.260;2024-03-08T12:19:09;19.70;;;13.50;;
26656;SDS011;14279;50.010;8.260;2024-03-08T12:21:35;21.37;;;14.30;;
26656;SDS011;14279;50.010;8.260;2024-03-08T12:24:01;22.53;;;14.20;;
26656;SDS011;14279;50.010;8.260;2024-03-08T12:43:34;20.30;;;14.50;;
26656;SDS011;14279;50.010;8.260;2024-03-08T12:45:59;23.47;;;15.03;;
26656;SDS011;14279;50.010;8.260;2024-03-08T12:48:25;22.67;;;14.63;;
26656;SDS011;14279;50.010;8.260;2024-03-08T12:50:50;21.30;;;14.90;;
26656;SDS011;14279;50.010;8.260;2024-03-08T12:53:17;24.30;;;14.60;;
26656;SDS011;14279;50.010;8.260;2024-03-08T12:55:42;21.50;;;15.13;;
26656;SDS011;14279;50.010;8.260;2024-03-08T12:58:10;20.70;;;14.87;;
26656;SDS011;14279;50.010;8.260;2024-03-08T13:00:36;18.90;;;14.30;;
26656;SDS011;14279;50.010;8.260;2024-03-08T13:03:10;23.87;;;15.40;;
26656;SDS011;14279;50.010;8.260;2024-03-08T13:05:36;21.77;;;14.80;;
26656;SDS011;14279;50.010;8.260;2024-03-08T13:08:07;25.50;;;17.00;;
26656;SDS011;14279;50.010;8.260;2024-03-08T13:10:54;22.27;;;14.23;;
26656;SDS011;14279;50.010;8.260;2024-03-08T13:13:19;25.30;;;14.13;;
26656;SDS011;14279;50.010;8.260;2024-03-08T13:15:44;25.00;;;15.60;;
26656;SDS011;14279;50.010;8.260;2024-03-08T13:18:10;24.17;;;15.17;;
26656;SDS011;14279;50.010;8.260;2024-03-08T13:20:36;19.40;;;13.73;;
26656;SDS011;14279;50.010;8.260;2024-03-08T13:23:04;22.10;;;14.97;;
26656;SDS011;14279;50.010;8.260;2024-03-08T13:25:30;22.77;;;14.73;;
26656;SDS011;14279;50.010;8.260;2024-03-08T13:27:56;21.23;;;15.00;;
26656;SDS011;14279;50.010;8.260;2024-03-08T13:30:24;24.40;;;13.77;;
26656;SDS011;14279;50.010;8.260;2024-03-08T13:32:51;26.27;;;14.60;;
26656;SDS011;14279;50.010;8.260;2024-03-08T13:35:18;24.17;;;14.00;;
26656;SDS011;14279;50.010;8.260;2024-03-08T13:37:49;19.20;;;13.67;;
26656;SDS011;14279;50.010;8.260;2024-03-08T13:40:16;23.63;;;15.70;;
26656;SDS011;14279;50.010;8.260;2024-03-08T13:42:43;23.50;;;15.97;;
26656;SDS011;14279;50.010;8.260;2024-03-08T13:45:09;22.43;;;14.17;;
26656;SDS011;14279;50.010;8.260;2024-03-08T13:47:41;25.10;;;15.37;;
26656;SDS011;14279;50.010;8.260;2024-03-08T13:50:07;22.13;;;14.77;;
26656;SDS011;14279;50.010;8.260;2024-03-08T13:52:36;20.40;;;14.77;;
26656;SDS011;14279;50.010;8.260;2024-03-08T13:55:03;19.73;;;14.03;;
26656;SDS011;14279;50.010;8.260;2024-03-08T13:57:30;27.40;;;15.20;;
26656;SDS011;14279;50.010;8.260;2024-03-08T13:59:56;21.60;;;13.03;;
26656;SDS011;14279;50.010;8.260;2024-03-08T14:02:22;19.20;;;14.37;;
26656;SDS011;14279;50.010;8.260;2024-03-08T14:04:49;21.60;;;13.50;;
26656;SDS011;14279;50.010;8.260;2024-03-08T14:07:15;29.87;;;15.40;;
26656;SDS011;14279;50.010;8.260;2024-03-08T14:09:41;20.83;;;14.23;;
26656;SDS011;14279;50.010;8.260;2024-03-08T14:12:08;19.13;;;13.80;;
26656;SDS011;14279;50.010;8.260;2024-03-08T14:14:34;21.30;;;14.43;;
26656;SDS011;14279;50.010;8.260;2024-03-08T14:17:00;21.40;;;13.60;;
26656;SDS011;14279;50.010;8.260;2024-03-08T14:19:26;20.30;;;14.60;;
26656;SDS011;14279;50.010;8.260;2024-03-08T14:21:52;23.73;;;14.83;;
26656;SDS011;14279;50.010;8.260;2024-03-08T14:24:18;22.90;;;14.73;;
26656;SDS011;14279;50.010;8.260;2024-03-08T14:26:44;18.90;;;12.93;;
26656;SDS011;14279;50.010;8.260;2024-03-08T14:29:09;21.20;;;14.33;;
26656;SDS011;14279;50.010;8.260;2024-03-08T14:31:35;24.03;;;15.80;;
26656;SDS011;14279;50.010;8.260;2024-03-08T14:34:01;26.73;;;14.67;;
26656;SDS011;14279;50.010;8.260;2024-03-08T14:36:28;23.50;;;14.43;;
26656;SDS011;14279;50.010;8.260;2024-03-08T14:38:54;21.20;;;13.73;;
26656;SDS011;14279;50.010;8.260;2024-03-08T14:41:19;23.33;;;15.33;;
26656;SDS011;14279;50.010;8.260;2024-03-08T14:43:45;17.90;;;13.10;;
26656;SDS011;14279;50.010;8.260;2024-03-08T14:46:17;24.83;;;15.17;;
26656;SDS011;14279;50.010;8.260;2024-03-08T14:48:46;19.93;;;13.90;;
26656;SDS011;14279;50.010;8.260;2024-03-08T14:51:12;20.50;;;13.67;;